createdAt,value
2018-09-13T00:02:02.830Z,56.06
2018-09-13T00:04:29.164Z,56.13
2018-09-13T00:06:55.481Z,56.09
2018-09-13T00:09:21.806Z,55.59
2018-09-13T00:11:48.108Z,56.05
2018-09-13T00:14:14.456Z,55.91
2018-09-13T00:16:40.750Z,56.08
2018-09-13T00:19:07.076Z,56.08
2018-09-13T00:21:33.403Z,56.30
2018-09-13T00:23:59.753Z,56.35
2018-09-13T00:26:26.062Z,56.62
2018-09-13T00:28:52.382Z,56.42
2018-09-13T00:31:18.697Z,56.51
2018-09-13T00:33:45.015Z,56.45
2018-09-13T00:36:11.335Z,56.46
2018-09-13T00:38:37.649Z,56.68
2018-09-13T00:41:03.960Z,57.02
2018-09-13T00:43:30.279Z,56.99
2018-09-13T00:45:56.616Z,57.19
2018-09-13T00:48:22.919Z,57.31
2018-09-13T00:50:49.240Z,57.33
2018-09-13T00:53:15.550Z,57.44
2018-09-13T00:55:41.866Z,57.57
2018-09-13T00:58:08.226Z,57.74
2018-09-13T01:00:34.540Z,57.85
2018-09-13T01:03:00.853Z,57.97
2018-09-13T01:05:27.171Z,58.10
2018-09-13T01:07:53.483Z,58.20
2018-09-13T01:10:19.792Z,58.18
2018-09-13T01:12:46.118Z,58.39
2018-09-13T01:15:12.432Z,58.49
2018-09-13T01:17:38.744Z,58.34
2018-09-13T01:20:05.059Z,58.47
2018-09-13T01:22:31.366Z,58.75
2018-09-13T01:24:57.684Z,58.83
2018-09-13T01:27:23.999Z,59.08
2018-09-13T01:29:50.313Z,59.04
2018-09-13T01:32:16.630Z,59.45
2018-09-13T01:34:42.948Z,59.65
2018-09-13T01:37:09.270Z,59.36
2018-09-13T01:39:35.580Z,59.71
2018-09-13T01:42:01.895Z,59.79
2018-09-13T01:44:28.217Z,59.95
2018-09-13T01:46:54.537Z,60.13
2018-09-13T01:49:20.852Z,60.39
2018-09-13T01:51:47.184Z,60.53
2018-09-13T01:54:13.503Z,60.45
2018-09-13T01:56:39.813Z,60.79
2018-09-13T01:59:06.128Z,60.58
2018-09-13T02:01:32.446Z,60.38
2018-09-13T02:03:58.758Z,60.33
2018-09-13T02:06:25.074Z,60.55
2018-09-13T02:08:51.394Z,60.56
2018-09-13T02:11:17.710Z,60.47
2018-09-13T02:13:44.020Z,60.74
2018-09-13T02:16:10.327Z,60.38
2018-09-13T02:18:36.651Z,60.85
2018-09-13T02:21:02.979Z,60.56
2018-09-13T02:23:29.297Z,60.70
2018-09-13T02:25:55.642Z,60.31
2018-09-13T02:28:21.954Z,60.59
2018-09-13T02:30:48.305Z,61.38
2018-09-13T02:33:14.622Z,61.52
2018-09-13T02:35:40.972Z,61.40
2018-09-13T02:38:07.295Z,61.35
2018-09-13T02:40:33.609Z,61.28
2018-09-13T02:42:59.930Z,61.10
2018-09-13T02:45:26.261Z,61.06
2018-09-13T02:47:52.560Z,61.13
2018-09-13T02:50:18.877Z,61.23
2018-09-13T02:52:45.219Z,61.51
2018-09-13T02:55:11.506Z,61.86
2018-09-13T02:57:37.815Z,62.26
2018-09-13T03:00:04.179Z,62.36
2018-09-13T03:02:30.503Z,62.25
2018-09-13T03:04:56.814Z,62.36
2018-09-13T03:07:23.141Z,62.81
2018-09-13T03:09:49.447Z,62.69
2018-09-13T03:12:15.786Z,62.64
2018-09-13T03:14:42.109Z,62.91
2018-09-13T03:17:08.435Z,62.97
2018-09-13T03:19:34.741Z,63.23
2018-09-13T03:22:01.051Z,63.33
2018-09-13T03:24:27.370Z,63.30
2018-09-13T03:26:53.686Z,63.35
2018-09-13T03:29:20.005Z,63.38
2018-09-13T03:31:46.321Z,63.48
2018-09-13T03:34:12.632Z,63.61
2018-09-13T03:36:38.958Z,63.75
2018-09-13T03:39:05.365Z,64.03
2018-09-13T03:41:31.685Z,64.10
2018-09-13T03:43:57.999Z,64.06
2018-09-13T03:46:24.313Z,64.25
2018-09-13T03:48:50.633Z,64.84
2018-09-13T03:51:16.951Z,64.77
2018-09-13T03:53:43.307Z,64.94
2018-09-13T03:56:09.621Z,65.09
2018-09-13T03:58:35.936Z,65.25
2018-09-13T04:01:02.268Z,65.32
2018-09-13T04:03:28.694Z,65.43
2018-09-13T04:05:54.913Z,65.76
2018-09-13T04:08:21.298Z,65.94
2018-09-13T04:10:47.604Z,66.22
2018-09-13T04:13:13.959Z,66.53
2018-09-13T04:15:40.268Z,66.41
2018-09-13T04:18:06.581Z,66.80
2018-09-13T04:20:32.897Z,66.71
2018-09-13T04:22:59.222Z,66.85
2018-09-13T04:25:25.531Z,67.45
2018-09-13T04:27:51.844Z,67.04
2018-09-13T04:30:18.162Z,67.65
2018-09-13T04:32:44.473Z,67.48
2018-09-13T04:35:10.798Z,67.12
2018-09-13T04:37:37.110Z,67.95
2018-09-13T04:40:03.471Z,69.82
2018-09-13T04:42:29.782Z,73.03
2018-09-13T04:44:56.140Z,71.52
2018-09-13T04:47:22.451Z,70.55
2018-09-13T04:49:48.770Z,70.10
2018-09-13T04:52:15.079Z,70.95
2018-09-13T04:54:41.384Z,70.80
2018-09-13T04:57:07.738Z,69.20
2018-09-13T04:59:34.058Z,67.97
2018-09-13T05:02:00.396Z,67.59
2018-09-13T05:04:26.709Z,66.58
2018-09-13T05:06:53.024Z,66.29
2018-09-13T05:09:19.344Z,65.92
2018-09-13T05:11:45.662Z,66.11
2018-09-13T05:14:11.984Z,66.66
2018-09-13T05:16:38.301Z,66.67
2018-09-13T05:19:04.618Z,66.66
2018-09-13T05:21:30.936Z,66.99
2018-09-13T05:23:57.243Z,66.64
2018-09-13T05:26:23.557Z,67.46
2018-09-13T05:28:49.876Z,67.55
2018-09-13T05:31:16.189Z,67.39
2018-09-13T05:33:42.512Z,67.30
2018-09-13T05:36:08.825Z,65.95
2018-09-13T05:38:35.146Z,66.02
2018-09-13T05:41:01.473Z,66.51
2018-09-13T05:43:27.790Z,66.22
2018-09-13T05:45:54.111Z,66.35
2018-09-13T05:48:20.419Z,65.95
2018-09-13T05:50:46.731Z,65.34
2018-09-13T05:53:13.047Z,65.11
2018-09-13T05:55:39.366Z,64.59
2018-09-13T05:58:05.687Z,64.36
2018-09-13T06:00:31.998Z,64.23
2018-09-13T06:02:58.304Z,64.03
2018-09-13T06:05:24.618Z,63.88
2018-09-13T06:07:51.004Z,63.70
2018-09-13T06:10:17.273Z,63.28
2018-09-13T06:12:43.599Z,62.74
2018-09-13T06:15:09.926Z,62.52
2018-09-13T06:17:36.304Z,62.59
2018-09-13T06:20:02.762Z,62.08
2018-09-13T06:22:29.081Z,62.05
2018-09-13T06:24:55.439Z,61.88
2018-09-13T06:27:21.804Z,61.52
2018-09-13T06:29:48.076Z,61.26
2018-09-13T06:32:14.389Z,61.03
2018-09-13T06:34:40.706Z,61.01
2018-09-13T06:37:07.016Z,61.06
2018-09-13T06:39:33.346Z,60.54
2018-09-13T06:41:59.662Z,59.82
2018-09-13T06:44:25.971Z,59.81
2018-09-13T06:46:52.294Z,59.17
2018-09-13T06:49:18.614Z,59.48
2018-09-13T06:51:44.923Z,58.95
2018-09-13T06:54:11.283Z,58.67
2018-09-13T06:56:37.562Z,58.57
2018-09-13T06:59:03.875Z,58.87
2018-09-13T07:01:30.188Z,59.60
2018-09-13T07:03:56.549Z,59.18
2018-09-13T07:06:22.863Z,59.56
2018-09-13T07:08:49.173Z,59.31
2018-09-13T07:11:15.485Z,59.37
2018-09-13T07:13:41.798Z,58.29
2018-09-13T07:16:08.124Z,57.92
2018-09-13T07:18:34.474Z,58.13
2018-09-13T07:21:00.789Z,57.76
2018-09-13T07:23:27.171Z,58.02
2018-09-13T07:25:53.429Z,57.78
2018-09-13T07:28:19.754Z,57.18
2018-09-13T07:30:46.112Z,57.64
2018-09-13T07:33:12.433Z,57.44
2018-09-13T07:35:38.804Z,57.19
2018-09-13T07:38:05.136Z,56.35
2018-09-13T07:40:31.467Z,56.70
2018-09-13T07:42:57.882Z,55.77
2018-09-13T07:45:24.141Z,55.60
2018-09-13T07:47:50.488Z,54.96
2018-09-13T07:50:16.837Z,54.76
2018-09-13T07:52:43.164Z,54.75
2018-09-13T07:55:09.497Z,54.31
2018-09-13T07:57:35.814Z,54.11
2018-09-13T08:00:02.170Z,53.90
2018-09-13T08:02:28.489Z,54.55
2018-09-13T08:04:54.856Z,54.10
2018-09-13T08:07:21.152Z,54.60
2018-09-13T08:09:47.481Z,54.53
2018-09-13T08:12:13.869Z,55.22
2018-09-13T08:14:40.117Z,55.11
2018-09-13T08:17:06.599Z,54.69
2018-09-13T08:19:32.810Z,54.75
2018-09-13T08:21:59.197Z,54.62
2018-09-13T08:24:25.480Z,54.10
2018-09-13T08:26:51.778Z,54.59
2018-09-13T08:29:18.109Z,54.05
2018-09-13T08:31:44.420Z,53.33
2018-09-13T08:34:10.734Z,53.02
2018-09-13T08:36:37.061Z,52.75
2018-09-13T08:39:03.394Z,52.58
2018-09-13T08:41:29.728Z,52.76
2018-09-13T08:43:56.040Z,52.53
2018-09-13T08:46:22.380Z,53.09
2018-09-13T08:48:48.722Z,53.20
2018-09-13T08:51:15.048Z,52.89
2018-09-13T08:53:41.360Z,53.00
2018-09-13T08:56:07.694Z,53.20
2018-09-13T08:58:34.086Z,53.36
2018-09-13T09:01:00.415Z,53.60
2018-09-13T09:03:26.774Z,53.43
2018-09-13T09:05:53.101Z,54.16
2018-09-13T09:08:19.439Z,53.56
2018-09-13T09:10:45.776Z,54.34
2018-09-13T09:13:12.127Z,54.93
2018-09-13T09:15:38.460Z,54.41
2018-09-13T09:18:04.770Z,54.20
2018-09-13T09:20:31.111Z,53.84
2018-09-13T09:22:57.445Z,54.27
2018-09-13T09:25:23.776Z,54.31
2018-09-13T09:27:50.091Z,54.73
2018-09-13T09:30:17.752Z,54.48
2018-09-13T09:32:44.060Z,54.89
2018-09-13T09:35:10.522Z,54.88
2018-09-13T09:37:36.779Z,55.02
2018-09-13T09:40:03.083Z,55.55
2018-09-13T09:42:29.418Z,55.66
2018-09-13T09:44:55.733Z,54.65
2018-09-13T09:47:22.044Z,53.41
2018-09-13T09:49:48.431Z,51.89
2018-09-13T09:52:14.817Z,50.02
2018-09-13T09:54:41.098Z,51.19
2018-09-13T09:57:07.463Z,52.09
2018-09-13T09:59:33.788Z,51.42
2018-09-13T10:02:00.124Z,51.34
2018-09-13T10:04:26.483Z,51.18
2018-09-13T10:06:52.789Z,50.68
2018-09-13T10:09:19.119Z,50.84
2018-09-13T10:11:45.509Z,50.53
2018-09-13T10:14:11.783Z,49.45
2018-09-13T10:16:38.098Z,49.07
2018-09-13T10:19:04.413Z,49.21
2018-09-13T10:21:30.728Z,49.48
2018-09-13T10:23:57.118Z,50.43
2018-09-13T10:26:23.455Z,50.47
2018-09-13T10:28:49.793Z,50.19
2018-09-13T10:31:19.354Z,49.03
2018-09-13T10:33:45.707Z,48.06
2018-09-13T10:36:12.100Z,48.68
2018-09-13T10:38:38.461Z,48.64
2018-09-13T10:41:04.795Z,48.82
2018-09-13T10:43:31.112Z,49.29
2018-09-13T10:45:57.427Z,50.29
2018-09-13T10:48:23.736Z,49.38
2018-09-13T10:50:50.067Z,48.71
2018-09-13T10:53:16.375Z,49.65
2018-09-13T10:55:42.811Z,49.00
2018-09-13T10:58:09.026Z,48.07
2018-09-13T11:00:35.344Z,48.91
2018-09-13T11:03:01.673Z,48.17
2018-09-13T11:05:29.121Z,48.15
2018-09-13T11:10:50.038Z,48.47
2018-09-13T11:13:16.203Z,49.03
2018-09-13T11:15:42.511Z,49.51
2018-09-13T11:18:08.826Z,49.53
2018-09-13T11:20:35.163Z,49.93
2018-09-13T11:23:01.493Z,50.46
2018-09-13T11:25:27.804Z,50.58
2018-09-13T11:27:54.169Z,51.73
2018-09-13T11:30:20.447Z,51.12
2018-09-13T11:32:46.792Z,51.38
2018-09-13T11:35:13.104Z,51.00
2018-09-13T11:37:39.447Z,51.28
2018-09-13T11:40:05.830Z,50.40
2018-09-13T11:42:32.078Z,50.89
2018-09-13T11:44:58.404Z,50.56
2018-09-13T11:47:24.715Z,50.00
2018-09-13T11:49:51.032Z,50.63
2018-09-13T11:52:17.376Z,50.18
2018-09-13T11:54:43.702Z,50.03
2018-09-13T11:57:10.035Z,51.84
2018-09-13T11:59:36.344Z,51.09
2018-09-13T12:02:02.715Z,51.51
2018-09-13T12:04:29.003Z,51.21
2018-09-13T12:06:55.337Z,51.89
2018-09-13T12:09:21.657Z,50.40
2018-09-13T12:11:47.961Z,50.15
2018-09-13T12:14:14.283Z,49.19
2018-09-13T12:16:40.588Z,50.33
2018-09-13T12:19:06.923Z,48.75
2018-09-13T12:21:33.258Z,48.54
2018-09-13T12:23:59.593Z,47.20
2018-09-13T12:26:25.937Z,47.13
2018-09-13T12:28:52.252Z,47.36
2018-09-13T12:31:18.588Z,47.60
2018-09-13T12:33:44.971Z,47.83
2018-09-13T12:36:11.250Z,48.80
2018-09-13T12:38:37.589Z,48.71
2018-09-13T12:41:03.908Z,48.45
2018-09-13T12:43:30.220Z,46.23
2018-09-13T12:45:56.555Z,46.29
2018-09-13T12:48:22.871Z,45.75
2018-09-13T12:50:49.186Z,44.89
2018-09-13T12:53:15.501Z,44.41
2018-09-13T12:55:41.814Z,44.54
2018-09-13T12:58:11.280Z,45.02
2018-09-13T13:00:37.597Z,46.12
2018-09-13T13:03:03.937Z,45.43
2018-09-13T13:05:30.243Z,44.90
2018-09-13T13:07:56.556Z,45.34
2018-09-13T13:10:22.873Z,45.54
2018-09-13T13:12:49.209Z,44.48
2018-09-13T13:15:15.545Z,43.76
2018-09-13T13:17:41.888Z,44.41
2018-09-13T13:20:08.200Z,45.12
2018-09-13T13:22:34.548Z,45.64
2018-09-13T13:25:00.861Z,44.83
2018-09-13T13:27:27.256Z,44.21
2018-09-13T13:29:53.515Z,45.06
2018-09-13T13:32:19.856Z,45.30
2018-09-13T13:34:46.177Z,45.83
2018-09-13T13:37:12.494Z,46.25
2018-09-13T13:39:38.811Z,46.06
2018-09-13T13:42:05.124Z,45.77
2018-09-13T13:44:31.488Z,45.85
2018-09-13T13:46:57.808Z,45.52
2018-09-13T13:49:24.170Z,46.12
2018-09-13T13:51:50.494Z,46.27
2018-09-13T13:54:16.798Z,45.94
2018-09-13T13:56:43.132Z,46.35
2018-09-13T13:59:09.471Z,46.55
2018-09-13T14:01:35.785Z,46.37
2018-09-13T14:04:02.121Z,46.34
2018-09-13T14:06:28.460Z,46.38
2018-09-13T14:08:54.795Z,46.85
2018-09-13T14:11:21.132Z,47.13
2018-09-13T14:13:47.465Z,47.30
2018-09-13T14:16:13.777Z,47.52
2018-09-13T14:18:40.093Z,47.66
2018-09-13T14:21:06.425Z,48.00
2018-09-13T14:23:32.765Z,48.04
2018-09-13T14:25:59.104Z,48.27
2018-09-13T14:28:25.415Z,48.35
2018-09-13T14:30:51.811Z,46.65
2018-09-13T14:33:18.136Z,46.53
2018-09-13T14:35:45.473Z,47.81
2018-09-13T14:38:10.776Z,48.24
2018-09-13T14:40:37.083Z,48.62
2018-09-13T14:43:03.429Z,48.71
2018-09-13T14:45:29.769Z,48.67
2018-09-13T14:47:56.092Z,48.75
2018-09-13T14:50:22.403Z,48.48
2018-09-13T14:52:48.717Z,48.24
2018-09-13T14:55:15.068Z,48.87
2018-09-13T14:57:41.375Z,51.73
2018-09-13T15:00:07.747Z,52.12
2018-09-13T15:02:34.091Z,50.64
2018-09-13T15:05:00.430Z,49.80
2018-09-13T15:07:26.895Z,49.51
2018-09-13T15:09:53.152Z,49.34
2018-09-13T15:12:19.543Z,49.16
2018-09-13T15:14:45.856Z,48.55
2018-09-13T15:17:12.173Z,48.63
2018-09-13T15:19:38.481Z,48.54
2018-09-13T15:22:04.799Z,48.77
2018-09-13T15:24:31.244Z,49.09
2018-09-13T15:26:57.461Z,49.23
2018-09-13T15:29:23.817Z,50.35
2018-09-13T15:31:50.154Z,49.83
2018-09-13T15:34:16.473Z,50.03
2018-09-13T15:36:42.811Z,50.12
2018-09-13T15:39:09.140Z,51.39
2018-09-13T15:41:35.534Z,51.57
2018-09-13T15:44:01.843Z,51.00
2018-09-13T15:46:28.172Z,50.22
2018-09-13T15:48:54.517Z,50.54
2018-09-13T15:51:20.892Z,50.87
2018-09-13T15:53:47.202Z,50.35
2018-09-13T15:56:13.545Z,50.09
2018-09-13T15:58:39.881Z,50.83
2018-09-13T16:01:06.196Z,50.57
2018-09-13T16:03:32.575Z,50.33
2018-09-13T16:05:58.898Z,50.99
2018-09-13T16:08:25.212Z,51.03
2018-09-13T16:10:51.574Z,50.70
2018-09-13T16:13:17.924Z,51.52
2018-09-13T16:15:44.259Z,51.31
2018-09-13T16:18:10.595Z,51.57
2018-09-13T16:20:36.929Z,51.94
2018-09-13T16:23:03.239Z,52.09
2018-09-13T16:25:29.581Z,51.52
2018-09-13T16:27:55.892Z,50.82
2018-09-13T16:30:22.248Z,51.14
2018-09-13T16:32:48.609Z,52.03
2018-09-13T16:35:15.087Z,52.38
2018-09-13T16:37:41.238Z,52.06
2018-09-13T16:40:07.604Z,51.91
2018-09-13T16:42:33.948Z,51.88
2018-09-13T16:45:00.230Z,52.53
2018-09-13T16:47:26.608Z,52.57
2018-09-13T16:49:52.861Z,53.25
2018-09-13T16:52:19.203Z,53.27
2018-09-13T16:54:45.526Z,52.99
2018-09-13T16:57:11.848Z,53.34
2018-09-13T16:59:38.159Z,53.48
2018-09-13T17:02:04.487Z,52.99
2018-09-13T17:04:30.790Z,53.11
2018-09-13T17:06:57.132Z,53.32
2018-09-13T17:09:23.476Z,53.47
2018-09-13T17:11:49.839Z,53.90
2018-09-13T17:14:16.180Z,53.82
2018-09-13T17:16:42.507Z,54.06
2018-09-13T17:19:08.817Z,54.08
2018-09-13T17:21:35.135Z,53.87
2018-09-13T17:24:01.452Z,54.29
2018-09-13T17:26:27.766Z,53.71
2018-09-13T17:28:54.076Z,54.49
2018-09-13T17:31:20.388Z,54.21
2018-09-13T17:33:46.776Z,54.46
2018-09-13T17:36:13.064Z,54.53
2018-09-13T17:38:39.376Z,55.07
2018-09-13T17:41:05.699Z,55.59
2018-09-13T17:43:32.027Z,55.56
2018-09-13T17:45:58.343Z,56.06
2018-09-13T17:48:24.662Z,55.98
2018-09-13T17:50:50.985Z,56.82
2018-09-13T17:53:17.314Z,56.42
2018-09-13T17:55:43.690Z,56.68
2018-09-13T17:58:09.953Z,57.20
2018-09-13T18:00:36.316Z,57.63
2018-09-13T18:03:02.633Z,57.41
2018-09-13T18:05:28.940Z,57.11
2018-09-13T18:07:55.253Z,57.02
2018-09-13T18:10:21.566Z,56.84
2018-09-13T18:12:47.878Z,57.00
2018-09-13T18:15:14.268Z,56.82
2018-09-13T18:17:40.504Z,57.07
2018-09-13T18:20:06.818Z,57.65
2018-09-13T18:22:33.139Z,57.73
2018-09-13T18:24:59.458Z,57.39
2018-09-13T18:27:25.772Z,57.80
2018-09-13T18:29:52.095Z,57.96
2018-09-13T18:32:18.418Z,58.05
2018-09-13T18:34:44.740Z,58.32
2018-09-13T18:37:11.070Z,58.47
2018-09-13T18:39:37.382Z,58.79
2018-09-13T18:42:03.700Z,59.95
2018-09-13T18:44:30.011Z,59.95
2018-09-13T18:46:56.328Z,60.27
2018-09-13T18:49:22.667Z,60.15
2018-09-13T18:51:48.968Z,60.35
2018-09-13T18:54:15.335Z,60.35
2018-09-13T18:56:41.606Z,60.66
2018-09-13T18:59:07.975Z,60.42
2018-09-13T19:01:34.286Z,60.68
2018-09-13T19:04:00.600Z,60.51
2018-09-13T19:06:26.991Z,60.12
2018-09-13T19:08:53.280Z,59.94
2018-09-13T19:11:19.598Z,60.03
2018-09-13T19:13:45.910Z,60.29
2018-09-13T19:16:12.301Z,60.49
2018-09-13T19:18:38.531Z,60.49
2018-09-13T19:21:04.915Z,60.38
2018-09-13T19:23:31.228Z,60.48
2018-09-13T19:25:57.534Z,60.55
2018-09-13T19:28:24.056Z,60.42
2018-09-13T19:30:50.446Z,60.49
2018-09-13T19:33:16.924Z,61.00
2018-09-13T19:35:43.355Z,61.03
2018-09-13T19:38:09.994Z,61.00
2018-09-13T19:40:36.632Z,61.06
2018-09-13T19:43:02.949Z,61.29
2018-09-13T19:45:29.396Z,61.66
2018-09-13T19:47:55.828Z,62.03
2018-09-13T19:50:43.546Z,62.75
2018-09-13T19:53:06.761Z,62.82
2018-09-13T19:55:33.151Z,62.74
2018-09-13T19:57:59.586Z,62.70
2018-09-13T20:00:25.900Z,63.23
2018-09-13T20:02:52.215Z,62.98
2018-09-13T20:05:18.524Z,62.76
2018-09-13T20:07:44.843Z,62.29
2018-09-13T20:10:11.152Z,62.16
2018-09-13T20:12:37.508Z,62.01
2018-09-13T20:15:03.829Z,63.37
2018-09-13T20:17:30.199Z,63.06
2018-09-13T20:19:56.521Z,62.99
2018-09-13T20:22:22.839Z,63.22
2018-09-13T20:24:49.173Z,63.63
2018-09-13T20:27:15.494Z,63.89
2018-09-13T20:29:41.811Z,63.58
2018-09-13T20:32:14.986Z,63.41
2018-09-13T20:34:41.301Z,63.53
2018-09-13T20:37:07.628Z,63.63
2018-09-13T20:39:34.001Z,64.05
2018-09-13T20:42:00.360Z,64.71
2018-09-13T20:44:26.725Z,64.81
2018-09-13T20:46:53.039Z,65.15
2018-09-13T20:49:19.389Z,65.25
2018-09-13T20:51:48.624Z,65.48
2018-09-13T20:54:14.932Z,65.14
2018-09-13T20:59:26.936Z,65.54
2018-09-13T21:01:53.248Z,65.13
2018-09-13T21:04:19.563Z,65.12
2018-09-13T21:06:45.901Z,66.06
2018-09-13T21:09:12.224Z,65.68
2018-09-13T21:11:38.551Z,65.33
2018-09-13T21:14:04.864Z,65.39
2018-09-13T21:16:31.231Z,65.57
2018-09-13T21:18:57.565Z,65.79
2018-09-13T21:21:23.880Z,66.30
2018-09-13T21:23:50.240Z,66.04
2018-09-13T21:26:16.511Z,65.79
2018-09-13T21:28:42.830Z,65.66
2018-09-13T21:31:09.142Z,66.12
2018-09-13T21:33:35.464Z,66.02
2018-09-13T21:36:01.836Z,65.67
2018-09-13T21:38:28.154Z,65.95
2018-09-13T21:40:54.545Z,65.93
2018-09-13T21:43:20.846Z,65.99
2018-09-13T21:45:47.186Z,66.01
2018-09-13T21:48:13.499Z,66.20
2018-09-13T21:50:39.837Z,66.57
2018-09-13T21:53:06.195Z,66.75
2018-09-13T21:55:32.516Z,66.60
2018-09-13T21:57:58.860Z,66.60
2018-09-13T22:00:25.233Z,66.54
2018-09-13T22:02:51.544Z,66.35
2018-09-13T22:05:17.865Z,66.71
2018-09-13T22:07:44.223Z,67.07
2018-09-13T22:10:10.545Z,66.80
2018-09-13T22:12:36.862Z,67.00
2018-09-13T22:15:03.229Z,66.86
2018-09-13T22:17:29.550Z,66.72
2018-09-13T22:19:55.865Z,66.87
2018-09-13T22:22:22.224Z,67.11
2018-09-13T22:24:48.549Z,67.12
2018-09-13T22:27:14.863Z,67.29
2018-09-13T22:29:41.253Z,67.08
2018-09-13T22:32:07.592Z,66.75
2018-09-13T22:34:33.877Z,66.50
2018-09-13T22:37:00.210Z,66.41
2018-09-13T22:39:26.523Z,67.22
2018-09-13T22:41:52.840Z,66.84
2018-09-13T22:44:19.158Z,66.37
2018-09-13T22:46:45.476Z,66.67
2018-09-13T22:49:11.794Z,66.59
2018-09-13T22:51:38.109Z,66.75
2018-09-13T22:54:04.433Z,66.74
2018-09-13T22:56:30.754Z,66.58
2018-09-13T22:58:57.065Z,66.81
2018-09-13T23:01:23.376Z,67.19
2018-09-13T23:03:49.690Z,66.98
2018-09-13T23:06:15.991Z,67.00
2018-09-13T23:08:42.309Z,66.67
2018-09-13T23:11:08.677Z,66.54
2018-09-13T23:13:35.003Z,66.44
2018-09-13T23:16:01.342Z,66.33
2018-09-13T23:18:27.640Z,67.16
2018-09-13T23:20:53.950Z,67.90
2018-09-13T23:23:20.272Z,68.05
2018-09-13T23:25:46.590Z,68.49
2018-09-13T23:28:12.919Z,68.33
2018-09-13T23:30:39.240Z,68.04
2018-09-13T23:33:05.557Z,67.76
2018-09-13T23:35:31.870Z,67.64
2018-09-13T23:37:58.184Z,68.02
2018-09-13T23:40:24.719Z,67.99
2018-09-13T23:42:50.853Z,68.52
2018-09-13T23:45:17.170Z,68.72
2018-09-13T23:47:43.497Z,68.91
2018-09-13T23:50:09.807Z,69.15
2018-09-13T23:52:36.121Z,69.48
2018-09-13T23:55:02.438Z,69.91
2018-09-13T23:57:28.755Z,69.97
2018-09-13T23:59:55.068Z,70.20
